createdAt,value
2022-10-03T00:01:54.035Z,78.26
2022-10-03T00:04:20.189Z,78.13
2022-10-03T00:06:46.294Z,78.43
2022-10-03T00:09:12.430Z,78.50
2022-10-03T00:11:38.749Z,78.71
2022-10-03T00:14:05.051Z,78.54
2022-10-03T00:16:31.155Z,78.66
2022-10-03T00:18:57.254Z,78.83
2022-10-03T00:21:23.385Z,78.96
2022-10-03T00:23:49.519Z,79.08
2022-10-03T00:26:15.631Z,79.08
2022-10-03T00:28:41.915Z,79.14
2022-10-03T00:31:08.028Z,79.12
2022-10-03T00:33:34.153Z,79.10
2022-10-03T00:36:00.258Z,79.25
2022-10-03T00:38:26.340Z,79.28
2022-10-03T00:40:52.488Z,79.19
2022-10-03T00:43:18.622Z,79.43
2022-10-03T00:45:44.703Z,79.34
2022-10-03T00:48:10.802Z,79.45
2022-10-03T00:50:36.940Z,79.37
2022-10-03T00:53:03.021Z,79.53
2022-10-03T00:55:29.117Z,79.53
2022-10-03T00:57:55.276Z,79.46
2022-10-03T01:00:21.373Z,79.58
2022-10-03T01:02:47.471Z,79.59
2022-10-03T01:05:13.580Z,79.61
2022-10-03T01:07:39.672Z,79.44
2022-10-03T01:10:05.758Z,79.54
2022-10-03T01:12:31.906Z,79.62
2022-10-03T01:14:57.988Z,79.72
2022-10-03T01:17:24.063Z,79.72
2022-10-03T01:19:50.178Z,79.62
2022-10-03T01:22:16.259Z,79.93
2022-10-03T01:24:42.347Z,79.83
2022-10-03T01:27:08.455Z,80.02
2022-10-03T01:29:34.566Z,79.93
2022-10-03T01:32:00.773Z,80.00
2022-10-03T01:34:26.892Z,79.98
2022-10-03T01:36:52.972Z,80.11
2022-10-03T01:39:19.061Z,80.09
2022-10-03T01:41:45.173Z,80.09
2022-10-03T01:44:11.270Z,80.20
2022-10-03T01:46:37.403Z,80.28
2022-10-03T01:49:04.207Z,80.18
2022-10-03T01:51:30.348Z,80.19
2022-10-03T01:53:56.450Z,80.21
2022-10-03T01:56:22.553Z,80.18
2022-10-03T01:58:48.655Z,80.27
2022-10-03T02:01:14.789Z,80.42
2022-10-03T02:03:40.992Z,80.46
2022-10-03T02:06:07.088Z,80.66
2022-10-03T02:08:33.210Z,80.60
2022-10-03T02:10:59.342Z,80.64
2022-10-03T02:13:25.433Z,80.91
2022-10-03T02:15:51.545Z,80.95
2022-10-03T02:18:17.677Z,80.88
2022-10-03T02:20:43.802Z,80.82
2022-10-03T02:23:09.880Z,80.89
2022-10-03T02:25:35.974Z,80.90
2022-10-03T02:28:02.150Z,81.06
2022-10-03T02:30:28.308Z,80.96
2022-10-03T02:32:54.904Z,81.00
2022-10-03T02:35:20.986Z,81.13
2022-10-03T02:37:47.080Z,81.00
2022-10-03T02:40:13.184Z,81.03
2022-10-03T02:42:39.277Z,81.18
2022-10-03T02:45:05.370Z,81.03
2022-10-03T02:47:31.678Z,81.09
2022-10-03T02:49:57.777Z,81.13
2022-10-03T02:52:23.880Z,81.28
2022-10-03T02:54:49.965Z,81.25
2022-10-03T02:57:16.042Z,81.23
2022-10-03T02:59:42.126Z,81.28
2022-10-03T03:02:08.279Z,81.14
2022-10-03T03:04:34.378Z,81.30
2022-10-03T03:07:00.592Z,81.24
2022-10-03T03:09:26.729Z,81.36
2022-10-03T03:11:52.821Z,81.39
2022-10-03T03:14:18.902Z,81.36
2022-10-03T03:16:45.061Z,81.37
2022-10-03T03:19:11.203Z,81.34
2022-10-03T03:21:37.674Z,81.45
2022-10-03T03:24:03.961Z,81.44
2022-10-03T03:26:30.131Z,81.47
2022-10-03T03:28:56.218Z,81.85
2022-10-03T03:31:22.396Z,81.74
2022-10-03T03:33:48.513Z,81.68
2022-10-03T03:36:14.615Z,81.74
2022-10-03T03:38:40.760Z,81.81
2022-10-03T03:41:06.862Z,81.71
2022-10-03T03:43:35.739Z,81.73
2022-10-03T03:46:02.117Z,81.58
2022-10-03T03:48:28.265Z,81.55
2022-10-03T03:50:54.537Z,81.63
2022-10-03T03:53:20.710Z,81.81
2022-10-03T03:55:46.823Z,81.64
2022-10-03T03:58:13.025Z,81.72
2022-10-03T04:00:39.171Z,81.89
2022-10-03T04:03:05.376Z,81.91
2022-10-03T04:05:31.475Z,81.81
2022-10-03T04:07:57.581Z,81.66
2022-10-03T04:10:23.665Z,81.91
2022-10-03T04:12:49.798Z,81.92
2022-10-03T04:15:15.931Z,81.93
2022-10-03T04:17:42.034Z,82.04
2022-10-03T04:20:08.128Z,81.99
2022-10-03T04:22:34.220Z,82.01
2022-10-03T04:25:00.400Z,82.09
2022-10-03T04:27:26.497Z,82.11
2022-10-03T04:29:56.640Z,82.15
2022-10-03T04:32:23.003Z,82.26
2022-10-03T04:34:49.099Z,82.24
2022-10-03T04:37:15.215Z,82.30
2022-10-03T04:39:41.309Z,82.33
2022-10-03T04:42:07.498Z,82.38
2022-10-03T04:44:33.608Z,82.44
2022-10-03T04:46:59.701Z,82.35
2022-10-03T04:49:25.803Z,82.43
2022-10-03T04:51:55.555Z,82.46
2022-10-03T04:54:21.968Z,82.56
2022-10-03T04:56:48.050Z,82.67
2022-10-03T04:59:14.144Z,82.63
2022-10-03T05:01:40.617Z,82.55
2022-10-03T05:04:06.971Z,82.56
2022-10-03T05:06:33.075Z,82.74
2022-10-03T05:08:59.161Z,82.65
2022-10-03T05:11:25.261Z,82.58
2022-10-03T05:13:51.365Z,82.67
2022-10-03T05:16:17.454Z,82.78
2022-10-03T05:18:43.569Z,82.58
2022-10-03T05:21:09.656Z,82.70
2022-10-03T05:23:35.757Z,82.76
2022-10-03T05:26:23.178Z,82.71
2022-10-03T05:28:47.911Z,82.84
2022-10-03T05:31:14.076Z,82.78
2022-10-03T05:33:40.187Z,82.64
2022-10-03T05:36:06.294Z,82.85
2022-10-03T05:38:32.380Z,82.83
2022-10-03T05:40:58.455Z,82.71
2022-10-03T05:43:25.047Z,82.79
2022-10-03T05:45:51.175Z,82.73
2022-10-03T05:48:17.290Z,82.71
2022-10-03T05:50:43.403Z,82.74
2022-10-03T05:53:09.479Z,82.72
2022-10-03T05:55:35.595Z,82.72
2022-10-03T05:58:02.675Z,82.66
2022-10-03T06:00:28.823Z,82.67
2022-10-03T06:02:55.119Z,82.71
2022-10-03T06:05:21.393Z,82.58
2022-10-03T06:07:47.487Z,82.70
2022-10-03T06:10:13.564Z,82.73
2022-10-03T06:12:39.659Z,82.64
2022-10-03T06:15:05.741Z,82.74
2022-10-03T06:17:31.885Z,82.87
2022-10-03T06:19:58.001Z,82.75
2022-10-03T06:22:24.086Z,82.71
2022-10-03T06:24:50.170Z,82.83
2022-10-03T06:27:16.265Z,82.50
2022-10-03T06:29:42.353Z,82.88
2022-10-03T06:32:08.581Z,82.74
2022-10-03T06:34:34.856Z,82.77
2022-10-03T06:37:01.075Z,82.86
2022-10-03T06:39:27.186Z,82.84
2022-10-03T06:41:53.475Z,82.83
2022-10-03T06:44:19.557Z,82.66
2022-10-03T06:46:45.685Z,82.72
2022-10-03T06:49:11.909Z,82.72
2022-10-03T06:51:39.170Z,82.76
2022-10-03T06:54:05.739Z,82.79
2022-10-03T06:56:32.101Z,82.75
2022-10-03T06:58:58.284Z,82.82
2022-10-03T07:01:24.424Z,82.55
2022-10-03T07:03:50.576Z,82.48
2022-10-03T07:06:16.722Z,82.55
2022-10-03T07:08:42.891Z,82.61
2022-10-03T07:11:09.088Z,82.38
2022-10-03T07:13:35.295Z,82.40
2022-10-03T07:18:48.546Z,82.36
2022-10-03T07:21:16.813Z,82.38
2022-10-03T07:23:43.151Z,82.06
2022-10-03T07:26:09.314Z,82.26
2022-10-03T07:28:35.612Z,82.24
2022-10-03T07:31:01.976Z,82.09
2022-10-03T07:33:28.117Z,82.06
2022-10-03T07:35:54.306Z,82.10
2022-10-03T07:38:20.396Z,81.99
2022-10-03T07:40:46.515Z,81.94
2022-10-03T07:43:12.601Z,81.75
2022-10-03T07:45:38.694Z,81.84
2022-10-03T07:48:04.799Z,82.00
2022-10-03T07:50:31.046Z,81.80
2022-10-03T07:52:57.261Z,81.81
2022-10-03T07:55:23.385Z,81.74
2022-10-03T07:57:49.475Z,81.22
2022-10-03T08:00:15.568Z,81.66
2022-10-03T08:02:42.194Z,81.60
2022-10-03T08:05:08.350Z,81.58
2022-10-03T08:07:34.423Z,81.55
2022-10-03T08:10:00.602Z,81.49
2022-10-03T08:12:26.698Z,81.43
2022-10-03T08:14:52.987Z,81.19
2022-10-03T08:17:19.159Z,81.35
2022-10-03T08:19:45.257Z,81.34
2022-10-03T08:22:11.345Z,80.97
2022-10-03T08:24:37.611Z,81.03
2022-10-03T08:27:03.930Z,81.12
2022-10-03T08:29:30.143Z,81.13
2022-10-03T08:31:56.252Z,81.06
2022-10-03T08:34:22.350Z,80.76
2022-10-03T08:36:48.430Z,80.91
2022-10-03T08:39:14.529Z,80.85
2022-10-03T08:41:41.118Z,80.79
2022-10-03T08:44:07.486Z,80.75
2022-10-03T08:46:33.623Z,80.42
2022-10-03T08:48:59.792Z,80.16
2022-10-03T08:51:25.917Z,80.00
2022-10-03T08:53:52.198Z,80.04
2022-10-03T08:56:18.290Z,79.81
2022-10-03T08:58:44.380Z,79.78
2022-10-03T09:01:10.527Z,79.75
2022-10-03T09:03:40.668Z,79.41
2022-10-03T09:06:09.102Z,79.20
2022-10-03T09:08:36.063Z,79.23
2022-10-03T09:11:02.318Z,79.08
2022-10-03T09:13:28.410Z,78.94
2022-10-03T09:15:54.683Z,78.48
2022-10-03T09:18:20.810Z,78.23
2022-10-03T09:20:46.956Z,78.05
2022-10-03T09:23:13.070Z,77.89
2022-10-03T09:25:39.148Z,77.66
2022-10-03T09:28:05.291Z,77.63
2022-10-03T09:30:31.668Z,77.17
2022-10-03T09:32:57.769Z,77.27
2022-10-03T09:35:23.866Z,77.17
2022-10-03T09:37:49.990Z,76.72
2022-10-03T09:40:17.273Z,76.46
2022-10-03T09:42:43.519Z,76.32
2022-10-03T09:45:09.622Z,76.02
2022-10-03T09:47:35.859Z,75.63
2022-10-03T09:50:02.057Z,75.64
2022-10-03T09:52:28.178Z,75.12
2022-10-03T09:54:54.397Z,74.95
2022-10-03T09:57:22.909Z,74.75
2022-10-03T09:59:49.612Z,74.39
2022-10-03T10:02:15.725Z,74.31
2022-10-03T10:04:54.986Z,73.58
2022-10-03T10:07:22.001Z,73.02
2022-10-03T10:09:48.103Z,72.49
2022-10-03T10:12:14.199Z,72.47
2022-10-03T10:14:40.309Z,72.09
2022-10-03T10:17:06.391Z,71.93
2022-10-03T10:19:32.668Z,71.73
2022-10-03T10:21:58.822Z,71.81
2022-10-03T10:24:24.901Z,71.49
2022-10-03T10:26:51.006Z,71.27
2022-10-03T10:29:17.170Z,71.00
2022-10-03T10:31:43.448Z,70.58
2022-10-03T10:34:09.715Z,70.34
2022-10-03T10:36:36.011Z,69.96
2022-10-03T10:39:02.181Z,69.70
2022-10-03T10:41:28.269Z,69.73
2022-10-03T10:43:54.370Z,69.69
2022-10-03T10:46:20.475Z,69.38
2022-10-03T10:48:46.601Z,69.14
2022-10-03T10:51:12.899Z,68.30
2022-10-03T10:53:38.989Z,68.14
2022-10-03T10:56:05.333Z,67.74
2022-10-03T10:58:31.562Z,67.20
2022-10-03T11:00:57.737Z,67.18
2022-10-03T11:03:23.861Z,66.67
2022-10-03T11:05:49.963Z,66.82
2022-10-03T11:08:16.045Z,66.92
2022-10-03T11:10:42.183Z,66.66
2022-10-03T11:13:09.272Z,66.48
2022-10-03T11:15:35.353Z,66.49
2022-10-03T11:18:01.460Z,66.29
2022-10-03T11:20:27.573Z,66.17
2022-10-03T11:22:53.657Z,66.05
2022-10-03T11:25:19.764Z,66.29
2022-10-03T11:27:45.873Z,66.09
2022-10-03T11:30:11.966Z,65.98
2022-10-03T11:32:38.050Z,65.41
2022-10-03T11:35:04.163Z,64.94
2022-10-03T11:37:30.267Z,64.55
2022-10-03T11:39:56.360Z,64.18
2022-10-03T11:42:22.488Z,63.80
2022-10-03T11:44:48.589Z,63.37
2022-10-03T11:47:14.676Z,63.33
2022-10-03T11:49:40.777Z,63.23
2022-10-03T11:52:06.886Z,63.15
2022-10-03T11:54:32.967Z,63.09
2022-10-03T11:56:59.083Z,63.08
2022-10-03T11:59:26.985Z,62.94
2022-10-03T12:01:53.232Z,62.54
2022-10-03T12:04:19.421Z,62.01
2022-10-03T12:06:45.504Z,61.79
2022-10-03T12:09:11.596Z,61.94
2022-10-03T12:11:37.894Z,61.60
2022-10-03T12:14:08.641Z,61.68
2022-10-03T12:16:37.030Z,61.49
2022-10-03T12:19:03.159Z,61.31
2022-10-03T12:21:29.236Z,61.28
2022-10-03T12:23:55.320Z,61.04
2022-10-03T12:26:21.435Z,60.66
2022-10-03T12:28:47.539Z,60.22
2022-10-03T12:31:17.039Z,59.90
2022-10-03T12:33:44.968Z,59.54
2022-10-03T12:36:11.066Z,59.45
2022-10-03T12:38:37.160Z,59.25
2022-10-03T12:41:03.262Z,59.29
2022-10-03T12:43:29.399Z,59.32
2022-10-03T12:45:55.538Z,59.56
2022-10-03T12:48:21.679Z,59.45
2022-10-03T12:50:48.086Z,59.29
2022-10-03T12:53:14.388Z,58.97
2022-10-03T12:55:40.712Z,59.26
2022-10-03T12:58:06.867Z,58.95
2022-10-03T13:00:32.999Z,59.06
2022-10-03T13:02:59.102Z,59.09
2022-10-03T13:05:25.193Z,58.95
2022-10-03T13:07:51.328Z,58.88
2022-10-03T13:10:17.431Z,58.64
2022-10-03T13:12:43.530Z,58.58
2022-10-03T13:15:09.634Z,58.32
2022-10-03T13:17:35.744Z,58.32
2022-10-03T13:20:01.836Z,58.08
2022-10-03T13:22:27.925Z,58.01
2022-10-03T13:24:54.015Z,57.79
2022-10-03T13:27:20.104Z,57.90
2022-10-03T13:29:46.186Z,57.95
2022-10-03T13:32:12.283Z,58.07
2022-10-03T13:34:38.369Z,57.78
2022-10-03T13:37:04.439Z,57.30
2022-10-03T13:39:30.543Z,57.33
2022-10-03T13:41:56.636Z,57.02
2022-10-03T13:44:22.733Z,56.43
2022-10-03T13:46:48.836Z,56.56
2022-10-03T13:49:14.926Z,56.44
2022-10-03T13:51:41.332Z,56.65
2022-10-03T13:54:08.146Z,56.61
2022-10-03T13:56:34.389Z,56.89
2022-10-03T13:59:00.537Z,56.76
2022-10-03T14:01:26.689Z,56.84
2022-10-03T14:03:53.687Z,56.74
2022-10-03T14:06:21.336Z,56.81
2022-10-03T14:08:47.473Z,56.67
2022-10-03T14:11:13.587Z,56.56
2022-10-03T14:13:39.681Z,56.19
2022-10-03T14:16:06.525Z,56.02
2022-10-03T14:18:32.656Z,55.90
2022-10-03T14:20:58.749Z,55.67
2022-10-03T14:23:24.845Z,55.67
2022-10-03T14:25:50.936Z,55.81
2022-10-03T14:28:17.101Z,55.90
2022-10-03T14:31:04.634Z,55.86
2022-10-03T14:33:29.321Z,55.91
2022-10-03T14:35:55.430Z,55.81
2022-10-03T14:38:21.521Z,55.72
2022-10-03T14:40:47.622Z,55.71
2022-10-03T14:43:13.763Z,55.64
2022-10-03T14:45:39.855Z,55.82
2022-10-03T14:48:06.004Z,55.79
2022-10-03T14:50:32.143Z,55.74
2022-10-03T14:52:58.232Z,56.15
2022-10-03T14:55:28.949Z,55.98
2022-10-03T14:58:10.248Z,56.15
2022-10-03T15:00:37.371Z,56.16
2022-10-03T15:03:03.531Z,56.12
2022-10-03T15:05:29.661Z,56.24
2022-10-03T15:07:55.769Z,56.08
2022-10-03T15:10:21.856Z,55.96
2022-10-03T15:12:47.950Z,55.94
2022-10-03T15:15:14.036Z,56.07
2022-10-03T15:17:40.961Z,55.91
2022-10-03T15:20:07.062Z,56.18
2022-10-03T15:22:33.160Z,56.02
2022-10-03T15:24:59.284Z,55.76
2022-10-03T15:27:25.365Z,55.14
2022-10-03T15:29:51.454Z,54.77
2022-10-03T15:32:17.562Z,54.48
2022-10-03T15:34:43.667Z,54.49
2022-10-03T15:37:09.789Z,54.69
2022-10-03T15:39:35.920Z,54.72
2022-10-03T15:42:02.052Z,54.70
2022-10-03T15:44:28.148Z,54.75
2022-10-03T15:46:54.246Z,54.96
2022-10-03T15:49:20.332Z,55.15
2022-10-03T15:51:46.443Z,55.34
2022-10-03T15:54:12.574Z,55.13
2022-10-03T15:56:41.658Z,55.46
2022-10-03T15:59:07.759Z,55.60
2022-10-03T16:01:33.890Z,55.89
2022-10-03T16:04:00.038Z,56.05
2022-10-03T16:06:26.143Z,56.16
2022-10-03T16:08:52.243Z,56.37
2022-10-03T16:11:18.468Z,56.60
2022-10-03T16:13:44.616Z,56.79
2022-10-03T16:16:10.814Z,56.94
2022-10-03T16:18:37.240Z,57.21
2022-10-03T16:21:03.463Z,57.32
2022-10-03T16:23:29.570Z,57.79
2022-10-03T16:25:55.739Z,58.23
2022-10-03T16:28:21.922Z,58.72
2022-10-03T16:30:48.078Z,58.80
2022-10-03T16:33:14.183Z,59.11
2022-10-03T16:35:40.274Z,59.08
2022-10-03T16:38:06.394Z,59.12
2022-10-03T16:40:32.478Z,59.29
2022-10-03T16:42:58.555Z,59.39
2022-10-03T16:45:24.838Z,59.38
2022-10-03T16:47:50.950Z,59.51
2022-10-03T16:50:17.056Z,59.50
2022-10-03T16:52:43.167Z,59.94
2022-10-03T16:55:09.260Z,60.02
2022-10-03T16:57:35.350Z,60.48
2022-10-03T17:00:01.540Z,60.72
2022-10-03T17:02:27.821Z,60.64
2022-10-03T17:04:53.999Z,61.05
2022-10-03T17:07:20.104Z,61.07
2022-10-03T17:09:46.190Z,61.46
2022-10-03T17:12:12.285Z,61.21
2022-10-03T17:14:38.392Z,61.24
2022-10-03T17:17:04.478Z,61.36
2022-10-03T17:19:30.563Z,61.51
2022-10-03T17:21:56.838Z,61.62
2022-10-03T17:24:22.911Z,61.89
2022-10-03T17:26:48.999Z,61.95
2022-10-03T17:29:15.120Z,62.31
2022-10-03T17:31:41.487Z,62.24
2022-10-03T17:34:09.432Z,62.33
2022-10-03T17:36:35.524Z,62.48
2022-10-03T17:39:01.605Z,62.85
2022-10-03T17:41:27.704Z,63.17
2022-10-03T17:43:53.970Z,63.25
2022-10-03T17:46:20.132Z,63.55
2022-10-03T17:48:46.281Z,63.26
2022-10-03T17:51:12.380Z,63.58
2022-10-03T17:53:38.461Z,63.50
2022-10-03T17:56:04.720Z,64.07
2022-10-03T17:58:30.840Z,64.07
2022-10-03T18:00:56.952Z,64.04
2022-10-03T18:03:23.111Z,64.38
2022-10-03T18:05:49.225Z,64.39
2022-10-03T18:08:15.307Z,64.68
2022-10-03T18:10:41.399Z,64.82
2022-10-03T18:13:07.501Z,65.10
2022-10-03T18:15:33.853Z,65.18
2022-10-03T18:17:59.946Z,65.43
2022-10-03T18:20:26.049Z,65.67
2022-10-03T18:22:52.134Z,65.67
2022-10-03T18:25:18.233Z,66.18
2022-10-03T18:27:44.594Z,66.15
2022-10-03T18:30:10.681Z,66.16
2022-10-03T18:32:36.796Z,66.29
2022-10-03T18:35:02.908Z,66.74
2022-10-03T18:37:28.991Z,67.00
2022-10-03T18:39:55.264Z,67.14
2022-10-03T18:42:21.373Z,67.29
2022-10-03T18:44:47.467Z,67.30
2022-10-03T18:47:13.557Z,67.35
2022-10-03T18:49:39.697Z,67.40
2022-10-03T18:52:05.793Z,67.67
2022-10-03T18:54:31.878Z,67.59
2022-10-03T18:56:57.982Z,67.72
2022-10-03T18:59:24.064Z,67.79
2022-10-03T19:01:50.265Z,68.07
2022-10-03T19:04:16.442Z,67.83
2022-10-03T19:06:42.537Z,68.58
2022-10-03T19:09:08.713Z,68.56
2022-10-03T19:11:34.822Z,68.62
2022-10-03T19:14:00.908Z,69.03
2022-10-03T19:16:27.011Z,69.01
2022-10-03T19:18:53.169Z,69.36
2022-10-03T19:21:19.286Z,69.38
2022-10-03T19:23:45.373Z,69.50
2022-10-03T19:26:11.491Z,69.64
2022-10-03T19:28:37.776Z,69.78
2022-10-03T19:31:03.956Z,69.97
2022-10-03T19:33:30.056Z,70.12
2022-10-03T19:35:56.149Z,70.19
2022-10-03T19:38:22.251Z,70.35
2022-10-03T19:40:48.380Z,70.30
2022-10-03T19:43:14.502Z,70.38
2022-10-03T19:45:40.643Z,70.49
2022-10-03T19:48:06.784Z,70.53
2022-10-03T19:50:32.886Z,70.52
2022-10-03T19:52:58.987Z,70.81
2022-10-03T19:55:25.138Z,70.71
2022-10-03T19:57:51.230Z,70.83
2022-10-03T20:00:17.320Z,71.06
2022-10-03T20:02:43.526Z,70.91
2022-10-03T20:05:09.648Z,70.88
2022-10-03T20:07:35.738Z,70.88
2022-10-03T20:10:01.853Z,71.09
2022-10-03T20:12:27.944Z,71.11
2022-10-03T20:14:54.205Z,71.11
2022-10-03T20:17:20.325Z,71.33
2022-10-03T20:19:46.443Z,71.48
2022-10-03T20:22:12.539Z,71.37
2022-10-03T20:24:38.672Z,71.40
2022-10-03T20:27:04.785Z,71.67
2022-10-03T20:29:30.875Z,71.79
2022-10-03T20:31:57.183Z,71.62
2022-10-03T20:34:23.268Z,71.94
2022-10-03T20:36:49.447Z,72.00
2022-10-03T20:39:15.544Z,71.98
2022-10-03T20:41:41.957Z,72.07
2022-10-03T20:44:08.228Z,72.13
2022-10-03T20:46:34.358Z,72.19
2022-10-03T20:49:00.475Z,72.17
2022-10-03T20:51:26.597Z,72.25
2022-10-03T20:53:52.838Z,72.39
2022-10-03T20:56:18.919Z,72.50
2022-10-03T20:58:49.081Z,72.58
2022-10-03T21:01:17.074Z,72.66
2022-10-03T21:03:43.285Z,72.93
2022-10-03T21:06:14.190Z,72.75
2022-10-03T21:08:41.029Z,72.77
2022-10-03T21:11:07.139Z,72.91
2022-10-03T21:13:33.348Z,72.87
2022-10-03T21:15:59.620Z,73.08
2022-10-03T21:18:25.762Z,72.98
2022-10-03T21:20:51.854Z,73.06
2022-10-03T21:23:17.955Z,73.13
2022-10-03T21:25:44.056Z,73.26
2022-10-03T21:28:10.194Z,73.25
2022-10-03T21:30:36.332Z,73.14
2022-10-03T21:33:02.409Z,73.10
2022-10-03T21:35:28.489Z,73.11
2022-10-03T21:37:54.659Z,73.11
2022-10-03T21:40:20.744Z,73.07
2022-10-03T21:42:46.827Z,73.42
2022-10-03T21:45:12.924Z,73.07
2022-10-03T21:47:39.022Z,73.33
2022-10-03T21:50:05.102Z,73.25
2022-10-03T21:52:31.200Z,73.46
2022-10-03T21:54:57.378Z,73.40
2022-10-03T21:57:23.469Z,73.25
2022-10-03T21:59:49.569Z,73.46
2022-10-03T22:02:15.725Z,73.64
2022-10-03T22:04:41.929Z,73.70
2022-10-03T22:07:08.043Z,73.64
2022-10-03T22:09:34.124Z,73.75
2022-10-03T22:12:00.218Z,73.90
2022-10-03T22:14:26.316Z,73.93
2022-10-03T22:16:52.406Z,73.71
2022-10-03T22:19:18.491Z,74.10
2022-10-03T22:21:44.596Z,73.76
2022-10-03T22:24:10.778Z,73.98
2022-10-03T22:26:36.879Z,73.88
2022-10-03T22:29:03.950Z,74.18
2022-10-03T22:31:30.117Z,74.02
2022-10-03T22:33:56.413Z,73.95
2022-10-03T22:36:22.520Z,74.31
2022-10-03T22:38:48.626Z,74.21
2022-10-03T22:41:14.712Z,74.09
2022-10-03T22:43:40.831Z,74.42
2022-10-03T22:46:06.966Z,74.20
2022-10-03T22:48:33.166Z,74.50
2022-10-03T22:50:59.273Z,74.13
2022-10-03T22:53:25.358Z,74.48
2022-10-03T22:55:51.446Z,74.25
2022-10-03T22:58:17.548Z,74.52
2022-10-03T23:00:43.643Z,74.42
2022-10-03T23:03:09.869Z,74.44
2022-10-03T23:05:36.059Z,74.72
2022-10-03T23:08:02.171Z,74.60
2022-10-03T23:10:28.272Z,74.46
2022-10-03T23:12:54.372Z,74.61
2022-10-03T23:15:20.452Z,74.69
2022-10-03T23:17:46.545Z,74.62
2022-10-03T23:20:12.637Z,74.64
2022-10-03T23:22:38.727Z,74.72
2022-10-03T23:25:04.820Z,74.82
2022-10-03T23:27:30.913Z,74.62
2022-10-03T23:29:57.042Z,74.67
2022-10-03T23:32:23.149Z,74.68
2022-10-03T23:34:49.262Z,74.82
2022-10-03T23:37:15.346Z,74.68
2022-10-03T23:39:41.431Z,74.84
2022-10-03T23:42:07.816Z,74.80
2022-10-03T23:44:33.902Z,74.69
2022-10-03T23:46:59.990Z,74.88
2022-10-03T23:49:26.102Z,75.17
2022-10-03T23:51:52.189Z,74.83
2022-10-03T23:54:18.289Z,74.81
2022-10-03T23:56:44.466Z,75.04
2022-10-03T23:59:10.566Z,75.16
